sensor_id;sensor_type;location;lat;lon;timestamp;P1;durP1;ratioP1;P2;durP2;ratioP2
68216;SDS011;55037;52.354;4.992;2023-07-08T00:00:54;9.77;;;3.57;;
68216;SDS011;55037;52.354;4.992;2023-07-08T00:03:22;5.35;;;3.13;;
68216;SDS011;55037;52.354;4.992;2023-07-08T00:05:50;9.55;;;3.63;;
68216;SDS011;55037;52.354;4.992;2023-07-08T00:08:22;6.30;;;3.28;;
68216;SDS011;55037;52.354;4.992;2023-07-08T00:10:50;6.03;;;3.10;;
68216;SDS011;55037;52.354;4.992;2023-07-08T00:13:17;9.17;;;3.83;;
68216;SDS011;55037;52.354;4.992;2023-07-08T00:15:46;5.22;;;3.38;;
68216;SDS011;55037;52.354;4.992;2023-07-08T00:18:15;6.35;;;3.90;;
68216;SDS011;55037;52.354;4.992;2023-07-08T00:20:45;8.38;;;3.60;;
68216;SDS011;55037;52.354;4.992;2023-07-08T00:23:14;5.63;;;3.72;;
68216;SDS011;55037;52.354;4.992;2023-07-08T00:25:42;6.47;;;3.90;;
68216;SDS011;55037;52.354;4.992;2023-07-08T00:28:17;5.90;;;3.08;;
68216;SDS011;55037;52.354;4.992;2023-07-08T00:30:47;6.45;;;3.30;;
68216;SDS011;55037;52.354;4.992;2023-07-08T00:33:16;8.30;;;3.72;;
68216;SDS011;55037;52.354;4.992;2023-07-08T00:35:44;5.70;;;3.40;;
68216;SDS011;55037;52.354;4.992;2023-07-08T00:38:26;3.97;;;2.73;;
68216;SDS011;55037;52.354;4.992;2023-07-08T00:41:04;5.28;;;3.65;;
68216;SDS011;55037;52.354;4.992;2023-07-08T00:43:35;5.78;;;3.67;;
68216;SDS011;55037;52.354;4.992;2023-07-08T00:48:48;10.13;;;4.03;;
68216;SDS011;55037;52.354;4.992;2023-07-08T00:51:19;7.53;;;3.63;;
68216;SDS011;55037;52.354;4.992;2023-07-08T00:53:49;5.15;;;2.90;;
68216;SDS011;55037;52.354;4.992;2023-07-08T00:56:33;5.43;;;3.05;;
68216;SDS011;55037;52.354;4.992;2023-07-08T00:59:29;6.40;;;3.60;;
68216;SDS011;55037;52.354;4.992;2023-07-08T01:02:00;5.55;;;2.97;;
68216;SDS011;55037;52.354;4.992;2023-07-08T01:07:04;7.35;;;3.15;;
68216;SDS011;55037;52.354;4.992;2023-07-08T01:09:36;10.02;;;3.40;;
68216;SDS011;55037;52.354;4.992;2023-07-08T01:12:11;11.35;;;3.25;;
68216;SDS011;55037;52.354;4.992;2023-07-08T01:14:41;7.50;;;3.15;;
68216;SDS011;55037;52.354;4.992;2023-07-08T01:17:10;5.00;;;2.90;;
68216;SDS011;55037;52.354;4.992;2023-07-08T01:19:41;5.78;;;3.30;;
68216;SDS011;55037;52.354;4.992;2023-07-08T01:22:10;10.32;;;3.75;;
68216;SDS011;55037;52.354;4.992;2023-07-08T01:24:40;5.85;;;3.30;;
68216;SDS011;55037;52.354;4.992;2023-07-08T01:27:11;4.82;;;3.28;;
68216;SDS011;55037;52.354;4.992;2023-07-08T01:29:41;7.70;;;3.60;;
68216;SDS011;55037;52.354;4.992;2023-07-08T01:32:12;6.75;;;3.53;;
68216;SDS011;55037;52.354;4.992;2023-07-08T01:34:45;7.15;;;3.65;;
68216;SDS011;55037;52.354;4.992;2023-07-08T01:37:37;6.53;;;3.60;;
68216;SDS011;55037;52.354;4.992;2023-07-08T01:42:46;5.20;;;3.07;;
68216;SDS011;55037;52.354;4.992;2023-07-08T01:45:15;7.72;;;3.17;;
68216;SDS011;55037;52.354;4.992;2023-07-08T01:47:45;7.82;;;3.28;;
68216;SDS011;55037;52.354;4.992;2023-07-08T01:50:18;6.97;;;3.00;;
68216;SDS011;55037;52.354;4.992;2023-07-08T01:52:48;5.30;;;3.13;;
68216;SDS011;55037;52.354;4.992;2023-07-08T01:55:21;4.97;;;3.00;;
68216;SDS011;55037;52.354;4.992;2023-07-08T01:57:51;4.90;;;3.00;;
68216;SDS011;55037;52.354;4.992;2023-07-08T02:00:20;7.15;;;3.63;;
68216;SDS011;55037;52.354;4.992;2023-07-08T02:02:50;6.13;;;3.88;;
68216;SDS011;55037;52.354;4.992;2023-07-08T02:05:18;7.00;;;2.90;;
68216;SDS011;55037;52.354;4.992;2023-07-08T02:07:46;6.70;;;3.00;;
68216;SDS011;55037;52.354;4.992;2023-07-08T02:10:13;5.72;;;3.40;;
68216;SDS011;55037;52.354;4.992;2023-07-08T02:12:41;7.07;;;3.63;;
68216;SDS011;55037;52.354;4.992;2023-07-08T02:15:09;4.65;;;2.92;;
68216;SDS011;55037;52.354;4.992;2023-07-08T02:17:37;7.32;;;3.05;;
68216;SDS011;55037;52.354;4.992;2023-07-08T02:20:05;10.00;;;3.30;;
68216;SDS011;55037;52.354;4.992;2023-07-08T02:22:35;5.20;;;3.10;;
68216;SDS011;55037;52.354;4.992;2023-07-08T02:25:03;4.68;;;3.03;;
68216;SDS011;55037;52.354;4.992;2023-07-08T02:27:32;5.25;;;3.13;;
68216;SDS011;55037;52.354;4.992;2023-07-08T02:29:59;8.23;;;3.15;;
68216;SDS011;55037;52.354;4.992;2023-07-08T02:32:28;6.63;;;3.10;;
68216;SDS011;55037;52.354;4.992;2023-07-08T02:34:55;5.22;;;2.90;;
68216;SDS011;55037;52.354;4.992;2023-07-08T02:37:23;5.10;;;2.75;;
68216;SDS011;55037;52.354;4.992;2023-07-08T02:39:52;5.85;;;3.03;;
68216;SDS011;55037;52.354;4.992;2023-07-08T02:42:19;4.97;;;2.92;;
68216;SDS011;55037;52.354;4.992;2023-07-08T02:44:47;7.03;;;3.03;;
68216;SDS011;55037;52.354;4.992;2023-07-08T02:47:14;6.03;;;3.30;;
68216;SDS011;55037;52.354;4.992;2023-07-08T02:49:42;6.32;;;2.90;;
68216;SDS011;55037;52.354;4.992;2023-07-08T02:52:09;6.97;;;3.03;;
68216;SDS011;55037;52.354;4.992;2023-07-08T02:54:37;6.85;;;3.75;;
68216;SDS011;55037;52.354;4.992;2023-07-08T02:57:05;5.10;;;2.67;;
68216;SDS011;55037;52.354;4.992;2023-07-08T02:59:32;4.97;;;3.08;;
68216;SDS011;55037;52.354;4.992;2023-07-08T03:02:00;6.50;;;3.50;;
68216;SDS011;55037;52.354;4.992;2023-07-08T03:04:27;5.90;;;2.90;;
68216;SDS011;55037;52.354;4.992;2023-07-08T03:06:57;5.50;;;3.25;;
68216;SDS011;55037;52.354;4.992;2023-07-08T03:09:24;4.73;;;3.17;;
68216;SDS011;55037;52.354;4.992;2023-07-08T03:11:53;6.75;;;2.70;;
68216;SDS011;55037;52.354;4.992;2023-07-08T03:14:20;7.10;;;3.28;;
68216;SDS011;55037;52.354;4.992;2023-07-08T03:16:49;7.90;;;3.00;;
68216;SDS011;55037;52.354;4.992;2023-07-08T03:19:16;6.43;;;3.17;;
68216;SDS011;55037;52.354;4.992;2023-07-08T03:21:44;4.97;;;3.13;;
68216;SDS011;55037;52.354;4.992;2023-07-08T03:24:14;8.38;;;3.55;;
68216;SDS011;55037;52.354;4.992;2023-07-08T03:26:46;4.25;;;2.42;;
68216;SDS011;55037;52.354;4.992;2023-07-08T03:29:15;7.70;;;2.78;;
68216;SDS011;55037;52.354;4.992;2023-07-08T03:31:46;9.55;;;3.15;;
68216;SDS011;55037;52.354;4.992;2023-07-08T03:34:15;5.07;;;3.00;;
68216;SDS011;55037;52.354;4.992;2023-07-08T03:36:44;7.72;;;2.92;;
68216;SDS011;55037;52.354;4.992;2023-07-08T03:39:17;10.00;;;3.72;;
68216;SDS011;55037;52.354;4.992;2023-07-08T03:41:45;4.38;;;2.72;;
68216;SDS011;55037;52.354;4.992;2023-07-08T03:44:14;3.97;;;2.58;;
68216;SDS011;55037;52.354;4.992;2023-07-08T03:46:46;9.40;;;3.10;;
68216;SDS011;55037;52.354;4.992;2023-07-08T03:49:19;5.65;;;3.42;;
68216;SDS011;55037;52.354;4.992;2023-07-08T03:51:50;7.32;;;3.00;;
68216;SDS011;55037;52.354;4.992;2023-07-08T03:54:21;8.10;;;3.20;;
68216;SDS011;55037;52.354;4.992;2023-07-08T03:56:53;5.43;;;3.25;;
68216;SDS011;55037;52.354;4.992;2023-07-08T03:59:23;5.13;;;3.00;;
68216;SDS011;55037;52.354;4.992;2023-07-08T04:01:52;6.93;;;3.35;;
68216;SDS011;55037;52.354;4.992;2023-07-08T04:04:20;6.13;;;3.45;;
68216;SDS011;55037;52.354;4.992;2023-07-08T04:06:47;7.80;;;3.17;;
68216;SDS011;55037;52.354;4.992;2023-07-08T04:09:17;7.95;;;3.30;;
68216;SDS011;55037;52.354;4.992;2023-07-08T04:11:44;6.73;;;3.37;;
68216;SDS011;55037;52.354;4.992;2023-07-08T04:14:12;6.57;;;3.47;;
68216;SDS011;55037;52.354;4.992;2023-07-08T04:19:18;7.65;;;3.67;;
68216;SDS011;55037;52.354;4.992;2023-07-08T04:21:46;4.32;;;3.28;;
68216;SDS011;55037;52.354;4.992;2023-07-08T04:24:14;7.87;;;3.63;;
68216;SDS011;55037;52.354;4.992;2023-07-08T04:26:45;4.85;;;3.28;;
68216;SDS011;55037;52.354;4.992;2023-07-08T04:29:15;6.05;;;3.85;;
68216;SDS011;55037;52.354;4.992;2023-07-08T04:31:44;7.88;;;4.03;;
68216;SDS011;55037;52.354;4.992;2023-07-08T04:34:14;8.85;;;3.53;;
68216;SDS011;55037;52.354;4.992;2023-07-08T04:36:44;7.77;;;3.10;;
68216;SDS011;55037;52.354;4.992;2023-07-08T04:39:13;6.05;;;3.40;;
68216;SDS011;55037;52.354;4.992;2023-07-08T04:41:40;6.55;;;3.38;;
68216;SDS011;55037;52.354;4.992;2023-07-08T04:44:11;7.60;;;3.97;;
68216;SDS011;55037;52.354;4.992;2023-07-08T04:49:15;5.70;;;3.00;;
68216;SDS011;55037;52.354;4.992;2023-07-08T04:51:42;4.93;;;3.38;;
68216;SDS011;55037;52.354;4.992;2023-07-08T04:54:10;3.88;;;2.60;;
68216;SDS011;55037;52.354;4.992;2023-07-08T04:56:39;5.63;;;3.15;;
68216;SDS011;55037;52.354;4.992;2023-07-08T04:59:09;5.90;;;3.50;;
68216;SDS011;55037;52.354;4.992;2023-07-08T05:01:38;9.13;;;4.00;;
68216;SDS011;55037;52.354;4.992;2023-07-08T05:04:07;5.05;;;3.13;;
68216;SDS011;55037;52.354;4.992;2023-07-08T05:06:36;5.05;;;3.13;;
68216;SDS011;55037;52.354;4.992;2023-07-08T05:09:04;5.93;;;3.03;;
68216;SDS011;55037;52.354;4.992;2023-07-08T05:11:34;4.47;;;2.95;;
68216;SDS011;55037;52.354;4.992;2023-07-08T05:14:02;6.27;;;3.47;;
68216;SDS011;55037;52.354;4.992;2023-07-08T05:16:32;5.00;;;2.75;;
68216;SDS011;55037;52.354;4.992;2023-07-08T05:19:00;4.90;;;3.20;;
68216;SDS011;55037;52.354;4.992;2023-07-08T05:21:29;6.28;;;3.20;;
68216;SDS011;55037;52.354;4.992;2023-07-08T05:24:01;7.32;;;3.42;;
68216;SDS011;55037;52.354;4.992;2023-07-08T05:26:29;5.30;;;3.00;;
68216;SDS011;55037;52.354;4.992;2023-07-08T05:28:56;6.38;;;3.45;;
68216;SDS011;55037;52.354;4.992;2023-07-08T05:31:24;6.85;;;3.85;;
68216;SDS011;55037;52.354;4.992;2023-07-08T05:34:07;8.57;;;3.63;;
68216;SDS011;55037;52.354;4.992;2023-07-08T05:36:35;7.85;;;3.97;;
68216;SDS011;55037;52.354;4.992;2023-07-08T05:39:03;5.10;;;2.90;;
68216;SDS011;55037;52.354;4.992;2023-07-08T05:41:30;6.82;;;3.63;;
68216;SDS011;55037;52.354;4.992;2023-07-08T05:43:58;8.75;;;4.60;;
68216;SDS011;55037;52.354;4.992;2023-07-08T05:46:26;8.90;;;4.65;;
68216;SDS011;55037;52.354;4.992;2023-07-08T05:48:54;7.07;;;4.60;;
68216;SDS011;55037;52.354;4.992;2023-07-08T05:51:22;7.93;;;4.60;;
68216;SDS011;55037;52.354;4.992;2023-07-08T05:53:50;8.73;;;4.47;;
68216;SDS011;55037;52.354;4.992;2023-07-08T05:56:17;8.52;;;4.88;;
68216;SDS011;55037;52.354;4.992;2023-07-08T05:58:45;7.63;;;4.28;;
68216;SDS011;55037;52.354;4.992;2023-07-08T06:01:13;6.20;;;4.40;;
68216;SDS011;55037;52.354;4.992;2023-07-08T06:03:40;6.80;;;4.87;;
68216;SDS011;55037;52.354;4.992;2023-07-08T06:06:08;6.75;;;4.25;;
68216;SDS011;55037;52.354;4.992;2023-07-08T06:08:36;8.30;;;4.65;;
68216;SDS011;55037;52.354;4.992;2023-07-08T06:11:03;8.27;;;5.00;;
68216;SDS011;55037;52.354;4.992;2023-07-08T06:13:31;8.65;;;5.40;;
68216;SDS011;55037;52.354;4.992;2023-07-08T06:15:58;8.97;;;5.03;;
68216;SDS011;55037;52.354;4.992;2023-07-08T06:18:26;9.00;;;5.18;;
68216;SDS011;55037;52.354;4.992;2023-07-08T06:20:54;8.07;;;5.60;;
68216;SDS011;55037;52.354;4.992;2023-07-08T06:23:24;7.55;;;4.95;;
68216;SDS011;55037;52.354;4.992;2023-07-08T06:25:51;8.82;;;5.57;;
68216;SDS011;55037;52.354;4.992;2023-07-08T06:28:19;8.20;;;4.20;;
68216;SDS011;55037;52.354;4.992;2023-07-08T06:30:48;9.55;;;4.78;;
68216;SDS011;55037;52.354;4.992;2023-07-08T06:33:16;10.52;;;5.35;;
68216;SDS011;55037;52.354;4.992;2023-07-08T06:35:44;8.80;;;4.80;;
68216;SDS011;55037;52.354;4.992;2023-07-08T06:38:12;8.27;;;4.82;;
68216;SDS011;55037;52.354;4.992;2023-07-08T06:40:39;6.30;;;4.10;;
68216;SDS011;55037;52.354;4.992;2023-07-08T06:43:07;5.22;;;3.85;;
68216;SDS011;55037;52.354;4.992;2023-07-08T06:45:47;8.75;;;4.30;;
68216;SDS011;55037;52.354;4.992;2023-07-08T06:48:15;8.77;;;4.20;;
68216;SDS011;55037;52.354;4.992;2023-07-08T06:50:46;6.53;;;4.97;;
68216;SDS011;55037;52.354;4.992;2023-07-08T06:53:15;6.60;;;3.67;;
68216;SDS011;55037;52.354;4.992;2023-07-08T06:55:45;6.35;;;4.13;;
68216;SDS011;55037;52.354;4.992;2023-07-08T06:58:13;5.38;;;3.72;;
68216;SDS011;55037;52.354;4.992;2023-07-08T07:00:44;6.05;;;3.92;;
68216;SDS011;55037;52.354;4.992;2023-07-08T07:03:12;8.63;;;3.80;;
68216;SDS011;55037;52.354;4.992;2023-07-08T07:05:40;7.23;;;3.73;;
68216;SDS011;55037;52.354;4.992;2023-07-08T07:08:08;6.28;;;4.38;;
68216;SDS011;55037;52.354;4.992;2023-07-08T07:10:35;6.30;;;4.15;;
68216;SDS011;55037;52.354;4.992;2023-07-08T07:13:03;7.53;;;3.85;;
68216;SDS011;55037;52.354;4.992;2023-07-08T07:15:31;8.35;;;4.28;;
68216;SDS011;55037;52.354;4.992;2023-07-08T07:18:01;8.60;;;4.30;;
68216;SDS011;55037;52.354;4.992;2023-07-08T07:20:29;7.10;;;4.10;;
68216;SDS011;55037;52.354;4.992;2023-07-08T07:22:57;6.35;;;4.30;;
68216;SDS011;55037;52.354;4.992;2023-07-08T07:25:25;5.78;;;3.63;;
68216;SDS011;55037;52.354;4.992;2023-07-08T07:27:52;9.15;;;3.90;;
68216;SDS011;55037;52.354;4.992;2023-07-08T07:30:20;6.53;;;3.47;;
68216;SDS011;55037;52.354;4.992;2023-07-08T07:32:48;7.22;;;3.95;;
68216;SDS011;55037;52.354;4.992;2023-07-08T07:35:15;7.30;;;4.13;;
68216;SDS011;55037;52.354;4.992;2023-07-08T07:37:43;7.90;;;4.75;;
68216;SDS011;55037;52.354;4.992;2023-07-08T07:40:11;8.73;;;5.07;;
68216;SDS011;55037;52.354;4.992;2023-07-08T07:42:43;8.37;;;4.90;;
68216;SDS011;55037;52.354;4.992;2023-07-08T07:45:12;8.60;;;4.72;;
68216;SDS011;55037;52.354;4.992;2023-07-08T07:47:40;6.93;;;4.15;;
68216;SDS011;55037;52.354;4.992;2023-07-08T07:50:09;7.53;;;4.07;;
68216;SDS011;55037;52.354;4.992;2023-07-08T07:52:37;10.95;;;5.22;;
68216;SDS011;55037;52.354;4.992;2023-07-08T07:55:04;7.63;;;5.10;;
68216;SDS011;55037;52.354;4.992;2023-07-08T07:57:33;10.57;;;4.32;;
68216;SDS011;55037;52.354;4.992;2023-07-08T08:00:01;10.13;;;5.25;;
68216;SDS011;55037;52.354;4.992;2023-07-08T08:02:38;8.82;;;4.95;;
68216;SDS011;55037;52.354;4.992;2023-07-08T08:05:07;8.15;;;5.35;;
68216;SDS011;55037;52.354;4.992;2023-07-08T08:07:35;9.53;;;4.97;;
68216;SDS011;55037;52.354;4.992;2023-07-08T08:10:05;10.20;;;4.68;;
68216;SDS011;55037;52.354;4.992;2023-07-08T08:12:33;10.43;;;5.15;;
68216;SDS011;55037;52.354;4.992;2023-07-08T08:15:19;10.63;;;6.10;;
68216;SDS011;55037;52.354;4.992;2023-07-08T08:17:48;9.57;;;6.45;;
68216;SDS011;55037;52.354;4.992;2023-07-08T08:20:20;10.40;;;6.57;;
68216;SDS011;55037;52.354;4.992;2023-07-08T08:22:49;8.45;;;5.53;;
68216;SDS011;55037;52.354;4.992;2023-07-08T08:25:18;7.82;;;5.35;;
68216;SDS011;55037;52.354;4.992;2023-07-08T08:27:46;12.75;;;5.95;;
68216;SDS011;55037;52.354;4.992;2023-07-08T08:30:14;7.38;;;4.80;;
68216;SDS011;55037;52.354;4.992;2023-07-08T08:32:42;9.23;;;5.90;;
68216;SDS011;55037;52.354;4.992;2023-07-08T08:35:09;7.15;;;5.35;;
68216;SDS011;55037;52.354;4.992;2023-07-08T08:37:40;8.65;;;5.30;;
68216;SDS011;55037;52.354;4.992;2023-07-08T08:40:11;8.18;;;5.43;;
68216;SDS011;55037;52.354;4.992;2023-07-08T08:42:46;9.65;;;6.10;;
68216;SDS011;55037;52.354;4.992;2023-07-08T08:45:19;8.10;;;5.07;;
68216;SDS011;55037;52.354;4.992;2023-07-08T08:47:49;8.65;;;5.53;;
68216;SDS011;55037;52.354;4.992;2023-07-08T08:53:11;8.02;;;4.97;;
68216;SDS011;55037;52.354;4.992;2023-07-08T08:55:42;8.52;;;5.30;;
68216;SDS011;55037;52.354;4.992;2023-07-08T08:58:25;8.77;;;4.23;;
68216;SDS011;55037;52.354;4.992;2023-07-08T09:01:04;8.48;;;5.15;;
68216;SDS011;55037;52.354;4.992;2023-07-08T09:03:49;8.50;;;5.15;;
68216;SDS011;55037;52.354;4.992;2023-07-08T09:06:22;8.13;;;5.25;;
68216;SDS011;55037;52.354;4.992;2023-07-08T09:08:53;12.15;;;5.85;;
68216;SDS011;55037;52.354;4.992;2023-07-08T09:13:53;9.98;;;5.60;;
68216;SDS011;55037;52.354;4.992;2023-07-08T09:27:05;11.57;;;5.20;;
68216;SDS011;55037;52.354;4.992;2023-07-08T09:29:32;10.00;;;6.05;;
68216;SDS011;55037;52.354;4.992;2023-07-08T09:32:22;11.23;;;6.30;;
68216;SDS011;55037;52.354;4.992;2023-07-08T09:34:53;8.10;;;5.75;;
68216;SDS011;55037;52.354;4.992;2023-07-08T09:37:33;10.23;;;6.00;;
68216;SDS011;55037;52.354;4.992;2023-07-08T09:42:51;11.00;;;6.57;;
68216;SDS011;55037;52.354;4.992;2023-07-08T09:45:23;10.35;;;6.55;;
68216;SDS011;55037;52.354;4.992;2023-07-08T09:47:55;9.05;;;6.35;;
68216;SDS011;55037;52.354;4.992;2023-07-08T09:50:25;8.50;;;5.10;;
68216;SDS011;55037;52.354;4.992;2023-07-08T09:52:55;6.43;;;5.20;;
68216;SDS011;55037;52.354;4.992;2023-07-08T09:55:24;7.57;;;6.07;;
68216;SDS011;55037;52.354;4.992;2023-07-08T09:57:52;9.50;;;5.88;;
68216;SDS011;55037;52.354;4.992;2023-07-08T10:00:55;9.75;;;6.00;;
68216;SDS011;55037;52.354;4.992;2023-07-08T10:05:58;7.95;;;5.90;;
68216;SDS011;55037;52.354;4.992;2023-07-08T10:08:40;8.27;;;6.10;;
68216;SDS011;55037;52.354;4.992;2023-07-08T10:11:33;7.03;;;5.45;;
68216;SDS011;55037;52.354;4.992;2023-07-08T10:16:59;9.20;;;6.30;;
68216;SDS011;55037;52.354;4.992;2023-07-08T10:19:27;8.02;;;5.82;;
68216;SDS011;55037;52.354;4.992;2023-07-08T10:22:05;7.85;;;7.00;;
68216;SDS011;55037;52.354;4.992;2023-07-08T10:24:40;7.95;;;6.00;;
68216;SDS011;55037;52.354;4.992;2023-07-08T10:27:18;8.80;;;6.53;;
68216;SDS011;55037;52.354;4.992;2023-07-08T10:29:51;7.27;;;6.07;;
68216;SDS011;55037;52.354;4.992;2023-07-08T10:32:24;8.38;;;5.72;;
68216;SDS011;55037;52.354;4.992;2023-07-08T10:35:16;8.65;;;6.20;;
68216;SDS011;55037;52.354;4.992;2023-07-08T10:46:41;11.05;;;6.53;;
68216;SDS011;55037;52.354;4.992;2023-07-08T10:55:23;9.27;;;8.30;;
68216;SDS011;55037;52.354;4.992;2023-07-08T11:06:11;10.45;;;7.35;;
68216;SDS011;55037;52.354;4.992;2023-07-08T11:08:56;10.48;;;9.38;;
68216;SDS011;55037;52.354;4.992;2023-07-08T11:11:29;8.90;;;7.27;;
68216;SDS011;55037;52.354;4.992;2023-07-08T11:14:30;9.32;;;7.95;;
68216;SDS011;55037;52.354;4.992;2023-07-08T11:17:11;10.38;;;7.30;;
68216;SDS011;55037;52.354;4.992;2023-07-08T11:19:50;9.95;;;7.95;;
68216;SDS011;55037;52.354;4.992;2023-07-08T11:22:25;9.15;;;8.00;;
68216;SDS011;55037;52.354;4.992;2023-07-08T11:24:54;11.03;;;8.50;;
68216;SDS011;55037;52.354;4.992;2023-07-08T11:27:32;11.10;;;8.35;;
68216;SDS011;55037;52.354;4.992;2023-07-08T11:32:44;10.98;;;9.88;;
68216;SDS011;55037;52.354;4.992;2023-07-08T11:35:23;12.20;;;10.57;;
68216;SDS011;55037;52.354;4.992;2023-07-08T11:38:14;12.77;;;9.67;;
68216;SDS011;55037;52.354;4.992;2023-07-08T11:40:50;11.93;;;9.50;;
68216;SDS011;55037;52.354;4.992;2023-07-08T11:43:21;10.32;;;9.43;;
68216;SDS011;55037;52.354;4.992;2023-07-08T11:45:50;10.45;;;8.82;;
68216;SDS011;55037;52.354;4.992;2023-07-08T11:48:28;11.85;;;10.63;;
68216;SDS011;55037;52.354;4.992;2023-07-08T11:50:58;10.47;;;8.93;;
68216;SDS011;55037;52.354;4.992;2023-07-08T12:01:32;10.65;;;9.38;;
68216;SDS011;55037;52.354;4.992;2023-07-08T12:06:40;11.23;;;10.23;;
68216;SDS011;55037;52.354;4.992;2023-07-08T12:09:22;14.13;;;9.85;;
68216;SDS011;55037;52.354;4.992;2023-07-08T12:11:57;11.38;;;10.18;;
68216;SDS011;55037;52.354;4.992;2023-07-08T12:14:32;12.48;;;11.25;;
68216;SDS011;55037;52.354;4.992;2023-07-08T12:16:59;9.67;;;8.50;;
68216;SDS011;55037;52.354;4.992;2023-07-08T12:19:27;11.15;;;10.07;;
68216;SDS011;55037;52.354;4.992;2023-07-08T12:22:01;9.48;;;8.48;;
68216;SDS011;55037;52.354;4.992;2023-07-08T12:24:33;10.85;;;9.60;;
68216;SDS011;55037;52.354;4.992;2023-07-08T12:27:02;10.82;;;9.80;;
68216;SDS011;55037;52.354;4.992;2023-07-08T12:29:29;12.10;;;11.10;;
68216;SDS011;55037;52.354;4.992;2023-07-08T12:31:58;11.13;;;8.23;;
68216;SDS011;55037;52.354;4.992;2023-07-08T12:34:25;11.98;;;10.77;;
68216;SDS011;55037;52.354;4.992;2023-07-08T12:36:53;12.25;;;9.50;;
68216;SDS011;55037;52.354;4.992;2023-07-08T12:39:22;11.93;;;10.75;;
68216;SDS011;55037;52.354;4.992;2023-07-08T12:41:49;13.70;;;12.50;;
68216;SDS011;55037;52.354;4.992;2023-07-08T12:44:19;11.88;;;10.68;;
68216;SDS011;55037;52.354;4.992;2023-07-08T12:46:49;11.05;;;9.90;;
68216;SDS011;55037;52.354;4.992;2023-07-08T12:49:20;11.50;;;10.40;;
68216;SDS011;55037;52.354;4.992;2023-07-08T12:51:48;11.82;;;9.52;;
68216;SDS011;55037;52.354;4.992;2023-07-08T12:54:17;10.83;;;9.80;;
68216;SDS011;55037;52.354;4.992;2023-07-08T12:56:45;14.20;;;9.68;;
68216;SDS011;55037;52.354;4.992;2023-07-08T12:59:14;11.55;;;10.05;;
68216;SDS011;55037;52.354;4.992;2023-07-08T13:01:46;10.75;;;9.73;;
68216;SDS011;55037;52.354;4.992;2023-07-08T13:04:15;11.63;;;10.55;;
68216;SDS011;55037;52.354;4.992;2023-07-08T13:06:44;8.50;;;7.60;;
68216;SDS011;55037;52.354;4.992;2023-07-08T13:11:59;12.48;;;11.20;;
68216;SDS011;55037;52.354;4.992;2023-07-08T13:14:31;10.73;;;8.80;;
68216;SDS011;55037;52.354;4.992;2023-07-08T13:16:59;12.20;;;10.90;;
68216;SDS011;55037;52.354;4.992;2023-07-08T13:19:27;12.30;;;11.10;;
68216;SDS011;55037;52.354;4.992;2023-07-08T13:21:55;13.13;;;9.88;;
68216;SDS011;55037;52.354;4.992;2023-07-08T13:24:23;12.55;;;11.45;;
68216;SDS011;55037;52.354;4.992;2023-07-08T13:26:51;12.93;;;11.73;;
68216;SDS011;55037;52.354;4.992;2023-07-08T13:29:18;12.25;;;11.23;;
68216;SDS011;55037;52.354;4.992;2023-07-08T13:31:49;11.70;;;10.57;;
68216;SDS011;55037;52.354;4.992;2023-07-08T13:34:22;11.98;;;10.77;;
68216;SDS011;55037;52.354;4.992;2023-07-08T13:36:51;12.23;;;11.02;;
68216;SDS011;55037;52.354;4.992;2023-07-08T13:39:20;14.32;;;13.07;;
68216;SDS011;55037;52.354;4.992;2023-07-08T13:41:53;12.77;;;11.65;;
68216;SDS011;55037;52.354;4.992;2023-07-08T13:44:21;12.13;;;10.90;;
68216;SDS011;55037;52.354;4.992;2023-07-08T13:46:53;12.60;;;11.07;;
68216;SDS011;55037;52.354;4.992;2023-07-08T13:49:30;13.98;;;12.68;;
68216;SDS011;55037;52.354;4.992;2023-07-08T13:54:42;10.27;;;9.27;;
68216;SDS011;55037;52.354;4.992;2023-07-08T13:57:13;12.70;;;10.90;;
68216;SDS011;55037;52.354;4.992;2023-07-08T13:59:43;11.80;;;10.68;;
68216;SDS011;55037;52.354;4.992;2023-07-08T14:02:15;11.98;;;10.63;;
68216;SDS011;55037;52.354;4.992;2023-07-08T14:04:47;12.77;;;11.65;;
68216;SDS011;55037;52.354;4.992;2023-07-08T14:07:23;15.20;;;11.55;;
68216;SDS011;55037;52.354;4.992;2023-07-08T14:09:54;11.13;;;10.10;;
68216;SDS011;55037;52.354;4.992;2023-07-08T14:12:35;12.70;;;11.50;;
68216;SDS011;55037;52.354;4.992;2023-07-08T14:15:18;15.32;;;13.77;;
68216;SDS011;55037;52.354;4.992;2023-07-08T14:17:46;12.23;;;11.02;;
68216;SDS011;55037;52.354;4.992;2023-07-08T14:20:15;12.63;;;11.55;;
68216;SDS011;55037;52.354;4.992;2023-07-08T14:22:44;12.40;;;11.30;;
68216;SDS011;55037;52.354;4.992;2023-07-08T14:25:12;11.68;;;10.60;;
68216;SDS011;55037;52.354;4.992;2023-07-08T14:27:44;14.15;;;12.85;;
68216;SDS011;55037;52.354;4.992;2023-07-08T14:30:26;13.73;;;10.90;;
68216;SDS011;55037;52.354;4.992;2023-07-08T14:32:54;13.73;;;12.30;;
68216;SDS011;55037;52.354;4.992;2023-07-08T14:35:28;13.03;;;11.90;;
68216;SDS011;55037;52.354;4.992;2023-07-08T14:37:58;11.38;;;9.55;;
68216;SDS011;55037;52.354;4.992;2023-07-08T14:40:36;13.30;;;10.80;;
68216;SDS011;55037;52.354;4.992;2023-07-08T14:43:10;11.32;;;10.23;;
68216;SDS011;55037;52.354;4.992;2023-07-08T14:45:49;12.88;;;11.57;;
68216;SDS011;55037;52.354;4.992;2023-07-08T14:48:20;11.77;;;10.60;;
68216;SDS011;55037;52.354;4.992;2023-07-08T14:50:57;10.80;;;9.80;;
68216;SDS011;55037;52.354;4.992;2023-07-08T14:53:28;13.50;;;10.98;;
68216;SDS011;55037;52.354;4.992;2023-07-08T17:07:50;9.90;;;7.85;;
68216;SDS011;55037;52.354;4.992;2023-07-08T17:10:18;11.90;;;8.63;;
68216;SDS011;55037;52.354;4.992;2023-07-08T17:12:46;12.30;;;8.73;;
68216;SDS011;55037;52.354;4.992;2023-07-08T17:15:15;10.52;;;8.00;;
68216;SDS011;55037;52.354;4.992;2023-07-08T17:17:46;12.35;;;8.40;;
68216;SDS011;55037;52.354;4.992;2023-07-08T17:20:18;10.40;;;8.68;;
68216;SDS011;55037;52.354;4.992;2023-07-08T17:22:48;11.97;;;8.67;;
68216;SDS011;55037;52.354;4.992;2023-07-08T17:25:23;13.07;;;9.52;;
68216;SDS011;55037;52.354;4.992;2023-07-08T17:27:52;12.20;;;10.73;;
68216;SDS011;55037;52.354;4.992;2023-07-08T17:30:21;13.90;;;10.02;;
68216;SDS011;55037;52.354;4.992;2023-07-08T17:32:49;12.55;;;10.10;;
68216;SDS011;55037;52.354;4.992;2023-07-08T17:35:22;13.60;;;9.43;;
68216;SDS011;55037;52.354;4.992;2023-07-08T17:37:51;12.18;;;8.35;;
68216;SDS011;55037;52.354;4.992;2023-07-08T17:40:20;13.68;;;8.88;;
68216;SDS011;55037;52.354;4.992;2023-07-08T17:42:50;11.45;;;9.05;;
68216;SDS011;55037;52.354;4.992;2023-07-08T17:45:23;9.70;;;8.70;;
68216;SDS011;55037;52.354;4.992;2023-07-08T17:47:57;11.87;;;9.30;;
68216;SDS011;55037;52.354;4.992;2023-07-08T17:50:27;9.82;;;8.82;;
68216;SDS011;55037;52.354;4.992;2023-07-08T17:52:55;12.45;;;9.88;;
68216;SDS011;55037;52.354;4.992;2023-07-08T17:55:24;10.60;;;8.48;;
68216;SDS011;55037;52.354;4.992;2023-07-08T17:57:52;12.07;;;9.60;;
68216;SDS011;55037;52.354;4.992;2023-07-08T18:00:21;14.23;;;12.70;;
68216;SDS011;55037;52.354;4.992;2023-07-08T18:02:54;12.80;;;11.50;;
68216;SDS011;55037;52.354;4.992;2023-07-08T18:05:23;16.23;;;12.00;;
68216;SDS011;55037;52.354;4.992;2023-07-08T18:07:53;15.73;;;10.05;;
68216;SDS011;55037;52.354;4.992;2023-07-08T18:10:21;19.02;;;14.55;;
68216;SDS011;55037;52.354;4.992;2023-07-08T18:12:52;13.10;;;11.07;;
68216;SDS011;55037;52.354;4.992;2023-07-08T18:15:28;12.38;;;10.35;;
68216;SDS011;55037;52.354;4.992;2023-07-08T18:17:59;11.50;;;9.70;;
68216;SDS011;55037;52.354;4.992;2023-07-08T18:23:03;12.05;;;9.57;;
68216;SDS011;55037;52.354;4.992;2023-07-08T18:25:39;11.37;;;8.40;;
68216;SDS011;55037;52.354;4.992;2023-07-08T18:28:07;12.00;;;9.55;;
68216;SDS011;55037;52.354;4.992;2023-07-08T18:30:36;11.10;;;8.65;;
68216;SDS011;55037;52.354;4.992;2023-07-08T18:33:04;13.40;;;9.63;;
68216;SDS011;55037;52.354;4.992;2023-07-08T18:35:40;13.57;;;10.88;;